sensor_id;sensor_type;location;lat;lon;timestamp;temperature;humidity
20398;DHT22;10358;49.590;11.030;2023-01-16T00:00:51;1.20;99.90
20398;DHT22;10358;49.590;11.030;2023-01-16T00:03:17;1.30;99.90
20398;DHT22;10358;49.590;11.030;2023-01-16T00:05:43;1.30;99.90
20398;DHT22;10358;49.590;11.030;2023-01-16T00:08:09;1.40;99.90
20398;DHT22;10358;49.590;11.030;2023-01-16T00:10:35;1.50;99.90
20398;DHT22;10358;49.590;11.030;2023-01-16T00:13:00;1.50;99.90
20398;DHT22;10358;49.590;11.030;2023-01-16T00:15:26;1.50;99.90
20398;DHT22;10358;49.590;11.030;2023-01-16T00:17:52;1.50;99.90
20398;DHT22;10358;49.590;11.030;2023-01-16T00:20:17;1.50;99.90
20398;DHT22;10358;49.590;11.030;2023-01-16T00:22:43;1.50;99.90
20398;DHT22;10358;49.590;11.030;2023-01-16T00:25:09;1.50;99.90
20398;DHT22;10358;49.590;11.030;2023-01-16T00:27:34;1.50;99.90
20398;DHT22;10358;49.590;11.030;2023-01-16T00:30:00;1.40;99.90
20398;DHT22;10358;49.590;11.030;2023-01-16T00:32:25;1.40;99.90
20398;DHT22;10358;49.590;11.030;2023-01-16T00:34:51;1.50;99.90
20398;DHT22;10358;49.590;11.030;2023-01-16T00:37:17;1.50;99.90
20398;DHT22;10358;49.590;11.030;2023-01-16T00:39:42;1.50;99.90
20398;DHT22;10358;49.590;11.030;2023-01-16T00:42:08;1.50;99.90
20398;DHT22;10358;49.590;11.030;2023-01-16T00:44:34;1.40;99.90
20398;DHT22;10358;49.590;11.030;2023-01-16T00:47:00;1.30;99.90
20398;DHT22;10358;49.590;11.030;2023-01-16T00:49:25;1.30;99.90
20398;DHT22;10358;49.590;11.030;2023-01-16T00:51:51;1.30;99.90
20398;DHT22;10358;49.590;11.030;2023-01-16T00:54:17;1.30;99.90
20398;DHT22;10358;49.590;11.030;2023-01-16T00:56:43;1.30;99.90
20398;DHT22;10358;49.590;11.030;2023-01-16T00:59:10;1.30;99.90
20398;DHT22;10358;49.590;11.030;2023-01-16T01:01:35;1.40;99.90
20398;DHT22;10358;49.590;11.030;2023-01-16T01:04:01;1.40;99.90
20398;DHT22;10358;49.590;11.030;2023-01-16T01:06:27;1.30;99.90
20398;DHT22;10358;49.590;11.030;2023-01-16T01:08:52;1.30;99.90
20398;DHT22;10358;49.590;11.030;2023-01-16T01:11:18;1.30;99.90
20398;DHT22;10358;49.590;11.030;2023-01-16T01:13:44;1.30;99.90
20398;DHT22;10358;49.590;11.030;2023-01-16T01:16:10;1.20;99.90
20398;DHT22;10358;49.590;11.030;2023-01-16T01:18:36;1.20;99.90
20398;DHT22;10358;49.590;11.030;2023-01-16T01:21:02;1.20;99.90
20398;DHT22;10358;49.590;11.030;2023-01-16T01:23:28;1.20;99.90
20398;DHT22;10358;49.590;11.030;2023-01-16T01:25:53;1.10;99.90
20398;DHT22;10358;49.590;11.030;2023-01-16T01:28:19;1.20;99.90
20398;DHT22;10358;49.590;11.030;2023-01-16T01:30:45;1.20;99.90
20398;DHT22;10358;49.590;11.030;2023-01-16T01:33:11;1.20;99.90
20398;DHT22;10358;49.590;11.030;2023-01-16T01:35:37;1.30;99.90
20398;DHT22;10358;49.590;11.030;2023-01-16T01:38:03;1.50;99.90
20398;DHT22;10358;49.590;11.030;2023-01-16T01:40:29;1.60;99.90
20398;DHT22;10358;49.590;11.030;2023-01-16T01:42:54;1.60;99.90
20398;DHT22;10358;49.590;11.030;2023-01-16T01:45:33;1.70;99.90
20398;DHT22;10358;49.590;11.030;2023-01-16T01:53:26;1.80;99.90
20398;DHT22;10358;49.590;11.030;2023-01-16T01:55:54;1.80;99.90
20398;DHT22;10358;49.590;11.030;2023-01-16T01:58:24;1.80;99.90
20398;DHT22;10358;49.590;11.030;2023-01-16T02:00:53;1.80;99.90
20398;DHT22;10358;49.590;11.030;2023-01-16T02:03:39;1.90;99.90
20398;DHT22;10358;49.590;11.030;2023-01-16T02:06:07;1.90;99.90
20398;DHT22;10358;49.590;11.030;2023-01-16T02:08:35;2.00;99.90
20398;DHT22;10358;49.590;11.030;2023-01-16T02:13:29;1.90;99.90
20398;DHT22;10358;49.590;11.030;2023-01-16T02:15:56;1.90;99.90
20398;DHT22;10358;49.590;11.030;2023-01-16T02:18:40;1.90;99.90
20398;DHT22;10358;49.590;11.030;2023-01-16T02:21:38;1.90;99.90
20398;DHT22;10358;49.590;11.030;2023-01-16T02:24:18;1.90;99.90
20398;DHT22;10358;49.590;11.030;2023-01-16T02:27:14;1.90;99.90
20398;DHT22;10358;49.590;11.030;2023-01-16T02:35:27;2.00;99.90
20398;DHT22;10358;49.590;11.030;2023-01-16T02:38:26;2.00;99.90
20398;DHT22;10358;49.590;11.030;2023-01-16T02:46:27;2.10;99.90
20398;DHT22;10358;49.590;11.030;2023-01-16T02:51:43;2.10;99.90
20398;DHT22;10358;49.590;11.030;2023-01-16T02:56:50;2.10;99.90
20398;DHT22;10358;49.590;11.030;2023-01-16T02:59:19;2.10;99.90
20398;DHT22;10358;49.590;11.030;2023-01-16T03:01:47;2.10;99.90
20398;DHT22;10358;49.590;11.030;2023-01-16T03:16:21;2.10;99.90
20398;DHT22;10358;49.590;11.030;2023-01-16T03:24:54;2.30;99.90
20398;DHT22;10358;49.590;11.030;2023-01-16T03:30:10;2.40;99.90
20398;DHT22;10358;49.590;11.030;2023-01-16T03:32:42;2.40;99.90
20398;DHT22;10358;49.590;11.030;2023-01-16T03:35:19;2.40;99.90
20398;DHT22;10358;49.590;11.030;2023-01-16T03:37:51;2.40;99.90
20398;DHT22;10358;49.590;11.030;2023-01-16T03:40:22;2.40;99.90
20398;DHT22;10358;49.590;11.030;2023-01-16T03:43:01;2.30;99.90
20398;DHT22;10358;49.590;11.030;2023-01-16T03:45:36;2.30;99.90
20398;DHT22;10358;49.590;11.030;2023-01-16T03:48:09;2.30;99.90
20398;DHT22;10358;49.590;11.030;2023-01-16T03:50:37;2.30;99.90
20398;DHT22;10358;49.590;11.030;2023-01-16T03:53:08;2.20;99.90
20398;DHT22;10358;49.590;11.030;2023-01-16T03:55:41;2.10;99.90
20398;DHT22;10358;49.590;11.030;2023-01-16T03:58:15;2.10;99.90
20398;DHT22;10358;49.590;11.030;2023-01-16T04:00:48;2.00;99.90
20398;DHT22;10358;49.590;11.030;2023-01-16T04:03:21;2.10;99.90
20398;DHT22;10358;49.590;11.030;2023-01-16T04:05:55;1.90;99.90
20398;DHT22;10358;49.590;11.030;2023-01-16T04:08:28;1.90;99.90
20398;DHT22;10358;49.590;11.030;2023-01-16T04:10:57;1.90;99.90
20398;DHT22;10358;49.590;11.030;2023-01-16T04:13:27;1.80;99.90
20398;DHT22;10358;49.590;11.030;2023-01-16T04:15:56;1.80;99.90
20398;DHT22;10358;49.590;11.030;2023-01-16T04:18:27;1.70;99.90
20398;DHT22;10358;49.590;11.030;2023-01-16T04:20:54;1.60;99.90
20398;DHT22;10358;49.590;11.030;2023-01-16T04:23:20;1.60;99.90
20398;DHT22;10358;49.590;11.030;2023-01-16T04:25:46;1.50;99.90
20398;DHT22;10358;49.590;11.030;2023-01-16T04:28:11;1.50;99.90
20398;DHT22;10358;49.590;11.030;2023-01-16T04:30:37;1.50;99.90
20398;DHT22;10358;49.590;11.030;2023-01-16T04:33:03;1.50;99.90
20398;DHT22;10358;49.590;11.030;2023-01-16T04:38:02;1.40;99.90
20398;DHT22;10358;49.590;11.030;2023-01-16T04:40:28;1.40;99.90
20398;DHT22;10358;49.590;11.030;2023-01-16T04:42:53;1.30;99.90
20398;DHT22;10358;49.590;11.030;2023-01-16T04:45:20;1.30;99.90
20398;DHT22;10358;49.590;11.030;2023-01-16T04:47:50;1.20;99.90
20398;DHT22;10358;49.590;11.030;2023-01-16T04:50:17;1.20;99.90
20398;DHT22;10358;49.590;11.030;2023-01-16T04:52:43;1.20;99.90
20398;DHT22;10358;49.590;11.030;2023-01-16T04:55:09;1.10;99.90
20398;DHT22;10358;49.590;11.030;2023-01-16T04:57:36;1.00;99.90
20398;DHT22;10358;49.590;11.030;2023-01-16T05:00:03;1.00;99.90
20398;DHT22;10358;49.590;11.030;2023-01-16T05:02:29;1.00;99.90
20398;DHT22;10358;49.590;11.030;2023-01-16T05:04:54;0.90;99.90
20398;DHT22;10358;49.590;11.030;2023-01-16T05:07:20;0.90;99.90
20398;DHT22;10358;49.590;11.030;2023-01-16T05:09:45;0.80;99.90
20398;DHT22;10358;49.590;11.030;2023-01-16T05:12:11;0.70;99.90
20398;DHT22;10358;49.590;11.030;2023-01-16T05:14:36;0.60;99.90
20398;DHT22;10358;49.590;11.030;2023-01-16T05:17:02;0.60;99.90
20398;DHT22;10358;49.590;11.030;2023-01-16T05:19:28;0.60;99.90
20398;DHT22;10358;49.590;11.030;2023-01-16T05:21:53;0.50;99.90
20398;DHT22;10358;49.590;11.030;2023-01-16T05:24:19;0.40;99.90
20398;DHT22;10358;49.590;11.030;2023-01-16T05:26:44;0.50;99.90
20398;DHT22;10358;49.590;11.030;2023-01-16T05:29:10;0.50;99.90
20398;DHT22;10358;49.590;11.030;2023-01-16T05:31:35;0.50;99.90
20398;DHT22;10358;49.590;11.030;2023-01-16T05:34:01;0.50;99.90
20398;DHT22;10358;49.590;11.030;2023-01-16T05:36:26;0.50;99.90
20398;DHT22;10358;49.590;11.030;2023-01-16T05:38:52;0.40;99.90
20398;DHT22;10358;49.590;11.030;2023-01-16T05:41:19;0.40;99.90
20398;DHT22;10358;49.590;11.030;2023-01-16T05:43:44;0.50;99.90
20398;DHT22;10358;49.590;11.030;2023-01-16T05:46:10;0.50;99.90
20398;DHT22;10358;49.590;11.030;2023-01-16T05:48:35;0.50;99.90
20398;DHT22;10358;49.590;11.030;2023-01-16T05:51:02;0.40;99.90
20398;DHT22;10358;49.590;11.030;2023-01-16T05:53:28;0.40;99.90
20398;DHT22;10358;49.590;11.030;2023-01-16T05:55:56;0.30;99.90
20398;DHT22;10358;49.590;11.030;2023-01-16T05:58:22;0.40;99.90
20398;DHT22;10358;49.590;11.030;2023-01-16T06:00:48;0.40;99.90
20398;DHT22;10358;49.590;11.030;2023-01-16T06:03:13;0.40;99.90
20398;DHT22;10358;49.590;11.030;2023-01-16T06:05:41;0.40;99.90
20398;DHT22;10358;49.590;11.030;2023-01-16T06:08:07;0.30;99.90
20398;DHT22;10358;49.590;11.030;2023-01-16T06:10:33;0.30;99.90
20398;DHT22;10358;49.590;11.030;2023-01-16T06:13:00;0.30;99.90
20398;DHT22;10358;49.590;11.030;2023-01-16T06:15:25;0.30;99.90
20398;DHT22;10358;49.590;11.030;2023-01-16T06:17:51;0.20;99.90
20398;DHT22;10358;49.590;11.030;2023-01-16T06:20:19;0.20;99.90
20398;DHT22;10358;49.590;11.030;2023-01-16T06:22:44;0.10;99.90
20398;DHT22;10358;49.590;11.030;2023-01-16T06:25:11;0.10;99.90
20398;DHT22;10358;49.590;11.030;2023-01-16T06:27:36;0.10;99.90
20398;DHT22;10358;49.590;11.030;2023-01-16T06:30:03;0.10;99.90
20398;DHT22;10358;49.590;11.030;2023-01-16T06:32:29;0.20;99.90
20398;DHT22;10358;49.590;11.030;2023-01-16T06:34:55;0.20;99.90
20398;DHT22;10358;49.590;11.030;2023-01-16T06:37:20;0.10;99.90
20398;DHT22;10358;49.590;11.030;2023-01-16T06:39:46;0.20;99.90
20398;DHT22;10358;49.590;11.030;2023-01-16T06:42:11;0.20;99.90
20398;DHT22;10358;49.590;11.030;2023-01-16T06:44:37;0.10;99.90
20398;DHT22;10358;49.590;11.030;2023-01-16T06:47:03;0.10;99.90
20398;DHT22;10358;49.590;11.030;2023-01-16T06:49:29;0.10;99.90
20398;DHT22;10358;49.590;11.030;2023-01-16T06:51:55;0.10;99.90
20398;DHT22;10358;49.590;11.030;2023-01-16T06:54:20;0.10;99.90
20398;DHT22;10358;49.590;11.030;2023-01-16T06:56:46;0.20;99.90
20398;DHT22;10358;49.590;11.030;2023-01-16T06:59:11;0.20;99.90
20398;DHT22;10358;49.590;11.030;2023-01-16T07:01:37;0.10;99.90
20398;DHT22;10358;49.590;11.030;2023-01-16T07:04:02;0.10;99.90
20398;DHT22;10358;49.590;11.030;2023-01-16T07:06:28;0.10;99.90
20398;DHT22;10358;49.590;11.030;2023-01-16T07:08:53;0.10;99.90
20398;DHT22;10358;49.590;11.030;2023-01-16T07:11:19;0.20;99.90
20398;DHT22;10358;49.590;11.030;2023-01-16T07:13:45;0.20;99.90
20398;DHT22;10358;49.590;11.030;2023-01-16T07:16:11;0.10;99.90
20398;DHT22;10358;49.590;11.030;2023-01-16T07:18:56;0.10;99.90
20398;DHT22;10358;49.590;11.030;2023-01-16T07:21:42;0.10;99.90
20398;DHT22;10358;49.590;11.030;2023-01-16T07:24:29;0.20;99.90
20398;DHT22;10358;49.590;11.030;2023-01-16T07:27:00;0.20;99.90
20398;DHT22;10358;49.590;11.030;2023-01-16T07:29:28;0.10;99.90
20398;DHT22;10358;49.590;11.030;2023-01-16T07:31:55;0.20;99.90
20398;DHT22;10358;49.590;11.030;2023-01-16T07:34:21;0.30;99.90
20398;DHT22;10358;49.590;11.030;2023-01-16T07:36:47;0.40;99.90
20398;DHT22;10358;49.590;11.030;2023-01-16T07:39:13;0.40;99.90
20398;DHT22;10358;49.590;11.030;2023-01-16T07:41:39;0.50;99.90
20398;DHT22;10358;49.590;11.030;2023-01-16T07:44:04;0.60;99.90
20398;DHT22;10358;49.590;11.030;2023-01-16T07:46:31;0.70;99.90
20398;DHT22;10358;49.590;11.030;2023-01-16T07:48:57;0.80;99.90
20398;DHT22;10358;49.590;11.030;2023-01-16T07:51:23;0.80;99.90
20398;DHT22;10358;49.590;11.030;2023-01-16T07:53:49;0.90;99.90
20398;DHT22;10358;49.590;11.030;2023-01-16T07:56:14;1.00;99.90
20398;DHT22;10358;49.590;11.030;2023-01-16T07:58:40;1.00;99.90
20398;DHT22;10358;49.590;11.030;2023-01-16T08:01:09;1.10;99.90
20398;DHT22;10358;49.590;11.030;2023-01-16T08:03:35;1.20;99.90
20398;DHT22;10358;49.590;11.030;2023-01-16T08:06:00;1.30;99.90
20398;DHT22;10358;49.590;11.030;2023-01-16T08:08:28;1.30;99.90
20398;DHT22;10358;49.590;11.030;2023-01-16T08:10:58;1.40;99.90
20398;DHT22;10358;49.590;11.030;2023-01-16T08:13:25;1.50;99.90
20398;DHT22;10358;49.590;11.030;2023-01-16T08:15:51;1.60;99.90
20398;DHT22;10358;49.590;11.030;2023-01-16T08:18:18;1.70;99.90
20398;DHT22;10358;49.590;11.030;2023-01-16T08:20:44;1.80;99.90
20398;DHT22;10358;49.590;11.030;2023-01-16T08:23:11;2.00;99.90
20398;DHT22;10358;49.590;11.030;2023-01-16T08:25:37;2.00;99.90
20398;DHT22;10358;49.590;11.030;2023-01-16T08:28:03;2.10;99.90
20398;DHT22;10358;49.590;11.030;2023-01-16T08:30:29;2.20;99.90
20398;DHT22;10358;49.590;11.030;2023-01-16T08:33:01;2.20;99.90
20398;DHT22;10358;49.590;11.030;2023-01-16T08:35:27;2.30;99.90
20398;DHT22;10358;49.590;11.030;2023-01-16T08:37:53;2.40;99.90
20398;DHT22;10358;49.590;11.030;2023-01-16T08:40:19;2.50;99.90
20398;DHT22;10358;49.590;11.030;2023-01-16T08:42:44;2.60;99.90
20398;DHT22;10358;49.590;11.030;2023-01-16T08:45:29;2.60;99.90
20398;DHT22;10358;49.590;11.030;2023-01-16T08:48:17;2.70;99.90
20398;DHT22;10358;49.590;11.030;2023-01-16T08:51:03;2.80;99.90
20398;DHT22;10358;49.590;11.030;2023-01-16T08:53:47;3.00;99.90
20398;DHT22;10358;49.590;11.030;2023-01-16T08:56:13;3.10;99.90
20398;DHT22;10358;49.590;11.030;2023-01-16T08:58:38;3.20;99.90
20398;DHT22;10358;49.590;11.030;2023-01-16T09:01:04;3.30;99.90
20398;DHT22;10358;49.590;11.030;2023-01-16T09:03:30;3.50;99.90
20398;DHT22;10358;49.590;11.030;2023-01-16T09:05:55;3.50;99.90
20398;DHT22;10358;49.590;11.030;2023-01-16T09:08:21;3.70;99.90
20398;DHT22;10358;49.590;11.030;2023-01-16T09:10:46;3.80;99.90
20398;DHT22;10358;49.590;11.030;2023-01-16T09:13:32;3.90;99.90
20398;DHT22;10358;49.590;11.030;2023-01-16T09:16:18;4.00;99.90
20398;DHT22;10358;49.590;11.030;2023-01-16T09:18:44;4.10;99.90
20398;DHT22;10358;49.590;11.030;2023-01-16T09:21:09;4.20;99.90
20398;DHT22;10358;49.590;11.030;2023-01-16T09:23:35;4.20;99.90
20398;DHT22;10358;49.590;11.030;2023-01-16T09:26:00;4.20;99.90
20398;DHT22;10358;49.590;11.030;2023-01-16T09:28:26;4.30;99.90
20398;DHT22;10358;49.590;11.030;2023-01-16T09:30:51;4.40;99.90
20398;DHT22;10358;49.590;11.030;2023-01-16T09:33:17;4.40;99.90
20398;DHT22;10358;49.590;11.030;2023-01-16T09:35:43;4.50;99.90
20398;DHT22;10358;49.590;11.030;2023-01-16T09:38:08;4.50;99.90
20398;DHT22;10358;49.590;11.030;2023-01-16T09:40:34;4.60;99.90
20398;DHT22;10358;49.590;11.030;2023-01-16T09:46:12;4.90;99.90
20398;DHT22;10358;49.590;11.030;2023-01-16T09:51:34;5.00;99.90
20398;DHT22;10358;49.590;11.030;2023-01-16T09:54:09;5.20;99.90
20398;DHT22;10358;49.590;11.030;2023-01-16T09:56:58;5.30;99.90
20398;DHT22;10358;49.590;11.030;2023-01-16T09:59:49;5.30;99.90
20398;DHT22;10358;49.590;11.030;2023-01-16T10:02:32;5.50;98.00
20398;DHT22;10358;49.590;11.030;2023-01-16T10:05:00;5.50;98.40
20398;DHT22;10358;49.590;11.030;2023-01-16T10:10:39;5.70;95.80
20398;DHT22;10358;49.590;11.030;2023-01-16T10:32:26;5.80;95.00
20398;DHT22;10358;49.590;11.030;2023-01-16T10:37:36;6.00;92.50
20398;DHT22;10358;49.590;11.030;2023-01-16T10:42:36;6.00;92.40
20398;DHT22;10358;49.590;11.030;2023-01-16T10:45:24;6.10;91.80
20398;DHT22;10358;49.590;11.030;2023-01-16T10:48:10;6.10;92.00
20398;DHT22;10358;49.590;11.030;2023-01-16T10:50:55;6.10;91.70
20398;DHT22;10358;49.590;11.030;2023-01-16T10:53:22;6.20;89.70
20398;DHT22;10358;49.590;11.030;2023-01-16T10:55:47;6.20;89.80
20398;DHT22;10358;49.590;11.030;2023-01-16T10:58:24;6.20;87.60
20398;DHT22;10358;49.590;11.030;2023-01-16T11:00:59;6.30;85.20
20398;DHT22;10358;49.590;11.030;2023-01-16T11:03:36;6.30;84.70
20398;DHT22;10358;49.590;11.030;2023-01-16T11:06:12;6.30;85.20
20398;DHT22;10358;49.590;11.030;2023-01-16T11:08:40;6.50;83.90
20398;DHT22;10358;49.590;11.030;2023-01-16T11:11:07;6.60;83.70
20398;DHT22;10358;49.590;11.030;2023-01-16T11:13:54;6.50;83.90
20398;DHT22;10358;49.590;11.030;2023-01-16T11:16:38;6.60;84.90
20398;DHT22;10358;49.590;11.030;2023-01-16T11:19:25;6.60;85.80
20398;DHT22;10358;49.590;11.030;2023-01-16T11:22:00;6.70;83.40
20398;DHT22;10358;49.590;11.030;2023-01-16T11:24:35;6.70;81.80
20398;DHT22;10358;49.590;11.030;2023-01-16T11:27:04;6.70;81.20
20398;DHT22;10358;49.590;11.030;2023-01-16T11:29:37;6.70;81.00
20398;DHT22;10358;49.590;11.030;2023-01-16T11:32:09;6.60;81.60
20398;DHT22;10358;49.590;11.030;2023-01-16T11:34:38;6.60;81.40
20398;DHT22;10358;49.590;11.030;2023-01-16T11:37:06;6.70;81.90
20398;DHT22;10358;49.590;11.030;2023-01-16T11:39:35;6.70;81.80
20398;DHT22;10358;49.590;11.030;2023-01-16T11:42:08;6.70;82.20
20398;DHT22;10358;49.590;11.030;2023-01-16T11:44:59;6.70;83.40
20398;DHT22;10358;49.590;11.030;2023-01-16T11:47:52;6.70;83.40
20398;DHT22;10358;49.590;11.030;2023-01-16T11:50:31;6.80;82.30
20398;DHT22;10358;49.590;11.030;2023-01-16T11:52:57;6.90;79.20
20398;DHT22;10358;49.590;11.030;2023-01-16T11:55:36;6.80;80.30
20398;DHT22;10358;49.590;11.030;2023-01-16T11:58:14;6.90;79.50
20398;DHT22;10358;49.590;11.030;2023-01-16T12:01:10;6.80;79.00
20398;DHT22;10358;49.590;11.030;2023-01-16T12:06:31;6.70;80.10
20398;DHT22;10358;49.590;11.030;2023-01-16T12:15:13;6.50;82.40
20398;DHT22;10358;49.590;11.030;2023-01-16T12:17:58;6.40;82.00
20398;DHT22;10358;49.590;11.030;2023-01-16T12:31:35;6.40;81.00
20398;DHT22;10358;49.590;11.030;2023-01-16T12:34:23;6.50;79.80
20398;DHT22;10358;49.590;11.030;2023-01-16T12:45:59;6.40;79.70
20398;DHT22;10358;49.590;11.030;2023-01-16T12:53:59;6.30;80.80
20398;DHT22;10358;49.590;11.030;2023-01-16T12:59:20;6.30;78.90
20398;DHT22;10358;49.590;11.030;2023-01-16T13:01:49;6.40;78.10
20398;DHT22;10358;49.590;11.030;2023-01-16T13:06:54;6.30;79.70
20398;DHT22;10358;49.590;11.030;2023-01-16T13:09:57;6.30;80.20
20398;DHT22;10358;49.590;11.030;2023-01-16T13:12:44;6.30;81.20
20398;DHT22;10358;49.590;11.030;2023-01-16T13:15:33;6.30;81.20
20398;DHT22;10358;49.590;11.030;2023-01-16T13:18:24;6.30;79.40
20398;DHT22;10358;49.590;11.030;2023-01-16T13:20:55;6.40;79.30
20398;DHT22;10358;49.590;11.030;2023-01-16T13:23:24;6.30;78.60
20398;DHT22;10358;49.590;11.030;2023-01-16T13:26:00;6.30;78.60
20398;DHT22;10358;49.590;11.030;2023-01-16T13:30:58;6.30;79.60
20398;DHT22;10358;49.590;11.030;2023-01-16T13:33:29;6.30;79.50
20398;DHT22;10358;49.590;11.030;2023-01-16T13:41:30;6.20;80.80
20398;DHT22;10358;49.590;11.030;2023-01-16T13:46:47;6.20;80.60
20398;DHT22;10358;49.590;11.030;2023-01-16T13:49:19;6.10;81.80
20398;DHT22;10358;49.590;11.030;2023-01-16T13:51:47;6.20;82.00
20398;DHT22;10358;49.590;11.030;2023-01-16T13:54:21;6.10;82.10
20398;DHT22;10358;49.590;11.030;2023-01-16T13:57:02;6.10;81.40
20398;DHT22;10358;49.590;11.030;2023-01-16T13:59:29;6.10;81.30
20398;DHT22;10358;49.590;11.030;2023-01-16T14:01:57;6.00;81.30
20398;DHT22;10358;49.590;11.030;2023-01-16T14:06:57;6.00;81.70
20398;DHT22;10358;49.590;11.030;2023-01-16T14:13:01;6.00;81.70
20398;DHT22;10358;49.590;11.030;2023-01-16T14:15:51;6.00;80.20
20398;DHT22;10358;49.590;11.030;2023-01-16T14:18:57;6.00;80.00
20398;DHT22;10358;49.590;11.030;2023-01-16T14:24:06;6.00;80.80
20398;DHT22;10358;49.590;11.030;2023-01-16T14:29:43;6.00;80.60
20398;DHT22;10358;49.590;11.030;2023-01-16T14:34:39;6.00;81.10
20398;DHT22;10358;49.590;11.030;2023-01-16T14:37:31;6.00;80.70
20398;DHT22;10358;49.590;11.030;2023-01-16T14:42:37;5.90;81.50
20398;DHT22;10358;49.590;11.030;2023-01-16T14:45:31;6.00;80.30
20398;DHT22;10358;49.590;11.030;2023-01-16T14:48:36;5.90;80.90
20398;DHT22;10358;49.590;11.030;2023-01-16T14:51:32;6.00;82.10
20398;DHT22;10358;49.590;11.030;2023-01-16T14:54:30;6.00;82.70
20398;DHT22;10358;49.590;11.030;2023-01-16T14:57:24;5.90;82.90
20398;DHT22;10358;49.590;11.030;2023-01-16T15:02:50;5.90;83.50
20398;DHT22;10358;49.590;11.030;2023-01-16T15:05:39;5.90;84.00
20398;DHT22;10358;49.590;11.030;2023-01-16T15:08:27;5.80;84.30
20398;DHT22;10358;49.590;11.030;2023-01-16T15:10:55;5.80;83.90
20398;DHT22;10358;49.590;11.030;2023-01-16T15:13:28;5.90;83.70
20398;DHT22;10358;49.590;11.030;2023-01-16T15:16:17;5.90;84.00
20398;DHT22;10358;49.590;11.030;2023-01-16T15:18:43;5.90;84.50
20398;DHT22;10358;49.590;11.030;2023-01-16T15:21:28;5.90;85.50
20398;DHT22;10358;49.590;11.030;2023-01-16T15:24:20;5.90;85.00
20398;DHT22;10358;49.590;11.030;2023-01-16T15:27:11;6.00;84.90
20398;DHT22;10358;49.590;11.030;2023-01-16T15:29:57;6.00;85.10
20398;DHT22;10358;49.590;11.030;2023-01-16T15:32:26;6.00;85.40
20398;DHT22;10358;49.590;11.030;2023-01-16T15:35:14;6.00;84.80
20398;DHT22;10358;49.590;11.030;2023-01-16T15:37:51;6.10;84.90
20398;DHT22;10358;49.590;11.030;2023-01-16T15:40:26;6.10;83.20
20398;DHT22;10358;49.590;11.030;2023-01-16T15:42:53;6.10;81.60
20398;DHT22;10358;49.590;11.030;2023-01-16T15:45:46;6.10;81.70
20398;DHT22;10358;49.590;11.030;2023-01-16T15:48:43;6.00;80.60
20398;DHT22;10358;49.590;11.030;2023-01-16T15:51:19;5.90;80.00
20398;DHT22;10358;49.590;11.030;2023-01-16T15:53:48;5.90;80.10
20398;DHT22;10358;49.590;11.030;2023-01-16T15:56:36;5.80;79.80
20398;DHT22;10358;49.590;11.030;2023-01-16T15:59:04;5.70;80.50
20398;DHT22;10358;49.590;11.030;2023-01-16T16:01:31;5.70;79.70
20398;DHT22;10358;49.590;11.030;2023-01-16T16:03:58;5.80;79.20
20398;DHT22;10358;49.590;11.030;2023-01-16T16:06:25;5.70;79.50
20398;DHT22;10358;49.590;11.030;2023-01-16T16:08:53;5.70;79.80
20398;DHT22;10358;49.590;11.030;2023-01-16T16:11:24;5.70;79.80
20398;DHT22;10358;49.590;11.030;2023-01-16T16:17:21;5.60;79.40
20398;DHT22;10358;49.590;11.030;2023-01-16T16:22:50;5.60;79.60
20398;DHT22;10358;49.590;11.030;2023-01-16T16:25:28;5.60;79.40
20398;DHT22;10358;49.590;11.030;2023-01-16T16:27:55;5.60;79.70
20398;DHT22;10358;49.590;11.030;2023-01-16T16:30:25;5.60;80.30
20398;DHT22;10358;49.590;11.030;2023-01-16T16:32:52;5.60;79.90
20398;DHT22;10358;49.590;11.030;2023-01-16T16:35:25;5.50;80.00
20398;DHT22;10358;49.590;11.030;2023-01-16T16:37:52;5.60;80.40
20398;DHT22;10358;49.590;11.030;2023-01-16T16:40:17;5.50;81.10
20398;DHT22;10358;49.590;11.030;2023-01-16T16:42:51;5.50;81.10
20398;DHT22;10358;49.590;11.030;2023-01-16T16:45:21;5.50;81.40
20398;DHT22;10358;49.590;11.030;2023-01-16T16:50:36;5.60;81.40
20398;DHT22;10358;49.590;11.030;2023-01-16T16:55:49;5.50;82.30
20398;DHT22;10358;49.590;11.030;2023-01-16T16:58:23;5.50;82.60
20398;DHT22;10358;49.590;11.030;2023-01-16T17:00:50;5.50;82.80
20398;DHT22;10358;49.590;11.030;2023-01-16T17:03:23;5.40;83.40
20398;DHT22;10358;49.590;11.030;2023-01-16T17:05:50;5.40;84.00
20398;DHT22;10358;49.590;11.030;2023-01-16T17:08:21;5.30;84.50
20398;DHT22;10358;49.590;11.030;2023-01-16T17:10:47;5.30;85.10
20398;DHT22;10358;49.590;11.030;2023-01-16T17:13:20;5.20;85.10
20398;DHT22;10358;49.590;11.030;2023-01-16T17:15:47;5.20;85.50
20398;DHT22;10358;49.590;11.030;2023-01-16T17:18:14;5.10;86.00
20398;DHT22;10358;49.590;11.030;2023-01-16T17:20:40;5.10;86.00
20398;DHT22;10358;49.590;11.030;2023-01-16T17:23:14;5.10;86.30
20398;DHT22;10358;49.590;11.030;2023-01-16T17:25:41;5.00;86.80
20398;DHT22;10358;49.590;11.030;2023-01-16T17:28:10;4.90;88.10
20398;DHT22;10358;49.590;11.030;2023-01-16T17:30:37;4.90;87.50
20398;DHT22;10358;49.590;11.030;2023-01-16T17:33:16;4.90;88.10
20398;DHT22;10358;49.590;11.030;2023-01-16T17:35:48;4.90;87.70
20398;DHT22;10358;49.590;11.030;2023-01-16T17:38:33;4.90;87.60
20398;DHT22;10358;49.590;11.030;2023-01-16T17:40:58;4.80;87.60
20398;DHT22;10358;49.590;11.030;2023-01-16T17:43:24;4.80;88.00
20398;DHT22;10358;49.590;11.030;2023-01-16T17:46:14;4.80;88.10
20398;DHT22;10358;49.590;11.030;2023-01-16T17:48:40;4.80;87.90
20398;DHT22;10358;49.590;11.030;2023-01-16T17:51:06;4.80;87.90
20398;DHT22;10358;49.590;11.030;2023-01-16T17:53:32;4.80;88.30
20398;DHT22;10358;49.590;11.030;2023-01-16T17:56:00;4.70;88.70
20398;DHT22;10358;49.590;11.030;2023-01-16T17:58:32;4.80;88.80
20398;DHT22;10358;49.590;11.030;2023-01-16T18:01:10;4.90;88.50
20398;DHT22;10358;49.590;11.030;2023-01-16T18:03:39;4.90;88.90
20398;DHT22;10358;49.590;11.030;2023-01-16T18:06:06;4.90;89.10
20398;DHT22;10358;49.590;11.030;2023-01-16T18:08:32;4.90;89.40
20398;DHT22;10358;49.590;11.030;2023-01-16T18:10:59;4.90;89.70
20398;DHT22;10358;49.590;11.030;2023-01-16T18:13:45;4.90;90.00
20398;DHT22;10358;49.590;11.030;2023-01-16T18:16:29;4.90;90.20
20398;DHT22;10358;49.590;11.030;2023-01-16T18:19:19;5.00;90.10
20398;DHT22;10358;49.590;11.030;2023-01-16T18:21:51;5.00;90.00
20398;DHT22;10358;49.590;11.030;2023-01-16T18:24:46;5.00;90.00
20398;DHT22;10358;49.590;11.030;2023-01-16T18:27:16;5.10;89.90
20398;DHT22;10358;49.590;11.030;2023-01-16T18:29:45;5.10;89.80
20398;DHT22;10358;49.590;11.030;2023-01-16T18:32:13;5.10;89.50
20398;DHT22;10358;49.590;11.030;2023-01-16T18:34:47;5.20;89.30
20398;DHT22;10358;49.590;11.030;2023-01-16T18:37:13;5.20;89.20
20398;DHT22;10358;49.590;11.030;2023-01-16T18:39:39;5.20;88.60